< < Back
Terminal Aerodrome Forecast


Current Version              Previous Versions:   1  2  3  4  5  6  7  8  9  

Terminal Aerodrome Forecast

647
FTUS42 KCHS 241727
TAFCHS
TAF
KCHS 241727Z 2418/2518 VRB06KT P6SM SCT060 SCT080
     FM241900 17010KT P6SM SCT070 SCT090
     FM250300 VRB04KT P6SM SCT250=

Latest METAR

406
SAUS80 KWBC 251100 CCA
MTRCHS
METAR KCHS 251056Z 00000KT 10SM MIFG FEW080 SCT250 19/18 A3021 RMK AO2
SLP229 T01940178


USA.gov is the U.S. government's official web portal to all federal, state and local government web resources and services.